createdAt,value
2019-06-27T00:06:44.822Z,100.00
2019-06-27T00:16:48.011Z,100.00
2019-06-27T00:26:57.287Z,100.00
2019-06-27T00:36:57.988Z,100.00
2019-06-27T00:47:00.539Z,100.00
2019-06-27T00:57:13.386Z,100.00
2019-06-27T01:07:10.458Z,100.00
2019-06-27T01:17:13.257Z,100.00
2019-06-27T01:27:29.503Z,100.00
2019-06-27T01:37:26.990Z,100.00
2019-06-27T01:47:29.541Z,100.00
2019-06-27T01:57:46.011Z,100.00
2019-06-27T02:07:39.748Z,100.00
2019-06-27T02:17:43.836Z,100.00
2019-06-27T02:28:02.137Z,100.00
2019-06-27T02:37:50.966Z,100.00
2019-06-27T02:47:53.622Z,100.00
2019-06-27T02:57:57.277Z,100.00
2019-06-27T03:07:59.828Z,100.00
2019-06-27T03:18:04.418Z,100.00
2019-06-27T03:28:06.971Z,100.00
2019-06-27T03:38:10.883Z,100.00
2019-06-27T03:48:13.523Z,100.00
2019-06-27T03:58:16.849Z,100.00
2019-06-27T04:08:23.107Z,100.00
2019-06-27T04:18:26.988Z,100.00
2019-06-27T04:28:29.873Z,100.00
2019-06-27T04:38:33.664Z,100.00
2019-06-27T04:48:36.207Z,97.37
2019-06-27T04:58:39.620Z,90.48
2019-06-27T05:08:43.546Z,84.34
2019-06-27T05:18:48.440Z,81.47
2019-06-27T05:28:52.342Z,78.13
2019-06-27T05:38:56.160Z,70.12
2019-06-27T05:48:58.700Z,65.30
2019-06-27T05:59:03.221Z,64.14
2019-06-27T06:09:07.206Z,60.05
2019-06-27T06:19:10.610Z,60.07
2019-06-27T06:29:16.648Z,57.94
2019-06-27T06:39:20.008Z,54.72
2019-06-27T06:49:22.533Z,60.90
2019-06-27T06:59:25.148Z,57.43
2019-06-27T07:09:27.668Z,51.86
2019-06-27T07:19:31.266Z,45.67
2019-06-27T07:29:34.930Z,42.87
2019-06-27T07:39:37.495Z,46.45
2019-06-27T07:49:40.962Z,46.16
2019-06-27T07:59:46.930Z,41.52
2019-06-27T08:09:50.750Z,40.78
2019-06-27T08:19:54.390Z,43.68
2019-06-27T08:29:58.835Z,41.05
2019-06-27T08:40:02.390Z,39.81
2019-06-27T08:50:06.244Z,42.63
2019-06-27T09:00:13.553Z,39.41
2019-06-27T09:10:16.343Z,35.46
2019-06-27T09:20:19.899Z,33.66
2019-06-27T09:30:23.138Z,30.07
2019-06-27T09:40:26.127Z,26.05
2019-06-27T09:50:28.788Z,26.46
2019-06-27T10:00:34.512Z,28.88
2019-06-27T10:10:37.487Z,29.11
2019-06-27T10:20:41.451Z,24.54
2019-06-27T10:30:49.075Z,23.62
2019-06-27T10:40:51.990Z,26.71
2019-06-27T10:50:57.552Z,24.93
2019-06-27T11:01:00.143Z,26.23
2019-06-27T11:11:02.780Z,27.22
2019-06-27T11:21:05.378Z,28.58
2019-06-27T11:31:07.912Z,29.66
2019-06-27T11:41:11.249Z,27.46
2019-06-27T11:51:13.802Z,29.79
2019-06-27T12:01:17.226Z,27.85
2019-06-27T12:11:20.303Z,31.87
2019-06-27T12:21:23.077Z,31.87
2019-06-27T12:31:25.600Z,32.48
2019-06-27T12:41:30.496Z,36.23
2019-06-27T12:51:33.043Z,36.33
2019-06-27T13:01:37.410Z,36.34
2019-06-27T13:11:40.789Z,34.41
2019-06-27T13:21:43.394Z,33.26
2019-06-27T13:31:45.942Z,33.93
2019-06-27T13:41:50.242Z,35.16
2019-06-27T13:51:53.545Z,37.19
2019-06-27T14:01:56.872Z,36.46
2019-06-27T14:12:01.978Z,35.95
2019-06-27T14:22:06.253Z,35.40
2019-06-27T14:32:09.035Z,38.45
2019-06-27T14:42:14.364Z,39.91
2019-06-27T14:52:17.262Z,39.49
2019-06-27T15:02:20.803Z,39.68
2019-06-27T15:12:24.521Z,42.41
2019-06-27T15:22:27.071Z,43.23
2019-06-27T15:32:29.920Z,45.37
2019-06-27T15:42:33.250Z,45.32
2019-06-27T15:52:35.793Z,47.91
2019-06-27T16:02:39.321Z,48.18
2019-06-27T16:12:42.166Z,49.20
2019-06-27T16:22:45.477Z,52.72
2019-06-27T16:32:48.000Z,54.79
2019-06-27T16:42:51.988Z,55.83
2019-06-27T16:52:55.475Z,55.88
2019-06-27T17:02:59.138Z,59.29
2019-06-27T17:13:01.797Z,62.39
2019-06-27T17:23:05.971Z,63.55
2019-06-27T17:33:08.510Z,63.44
2019-06-27T17:43:14.939Z,62.57
2019-06-27T17:53:19.468Z,62.41
2019-06-27T18:03:23.777Z,62.04
2019-06-27T18:13:26.935Z,61.20
2019-06-27T18:23:31.067Z,63.24
2019-06-27T18:33:34.461Z,65.32
2019-06-27T18:43:38.467Z,67.83
2019-06-27T18:53:41.792Z,70.79
2019-06-27T19:03:45.477Z,71.71
2019-06-27T19:13:48.811Z,73.08
2019-06-27T19:23:58.414Z,76.75
2019-06-27T19:34:00.991Z,79.58
2019-06-27T19:44:04.591Z,83.11
2019-06-27T19:54:07.118Z,88.12
2019-06-27T20:04:11.615Z,89.45
2019-06-27T20:14:14.153Z,91.75
2019-06-27T20:24:17.254Z,94.66
2019-06-27T20:34:21.099Z,99.01
2019-06-27T20:44:25.854Z,100.00
2019-06-27T20:54:29.519Z,100.00
2019-06-27T21:04:32.969Z,100.00
2019-06-27T21:14:36.187Z,100.00
2019-06-27T21:24:38.757Z,100.00
2019-06-27T21:34:41.658Z,100.00
2019-06-27T21:44:46.378Z,100.00
2019-06-27T21:54:48.915Z,100.00
2019-06-27T22:04:51.493Z,100.00
2019-06-27T22:14:54.852Z,100.00
2019-06-27T22:24:59.620Z,100.00
2019-06-27T22:35:03.385Z,100.00
2019-06-27T22:45:13.853Z,100.00
2019-06-27T22:55:19.685Z,100.00
2019-06-27T23:05:23.056Z,100.00
2019-06-27T23:15:25.770Z,100.00
2019-06-27T23:25:30.691Z,100.00
2019-06-27T23:35:34.072Z,100.00
2019-06-27T23:45:37.373Z,100.00
2019-06-27T23:55:39.954Z,100.00
